^^
Grace C. Lehan Memorial Weather Station Historical Data
Daily Summary for July 10, 2022 Units:  Both    English   Metric
Daily Weekly Monthly Yearly
  High: Low: Average:
Temperature: 87.4 °F /  30.8 °C 58 °F /  14.4 °C 72.1 °F /  22.3 °C
Dew Point: 67 °F /  19.4 °C 56.3 °F /  13.5 °C 61.9 °F /  16.6 °C
Humidity: 96% 47.1% 73%
Wind Speed: 1.1mph /  1.8km/h - 0mph /  0km/h
Wind Gust: 6mph /  9.7km/h - -
Wind- - WNW
Pressure: 30.22 in /  1023.2 hPa 30.12 in /  1019.9 hPa -
Precipitation: 0.00 in /  0 mm    
 
 
Tabular Data for July 10, 2022
Time Temperature Dew Point Pressure Wind Wind Speed Wind Gust Humidity Rainfall Rate (Hourly) solar
00:09 64.3 °F /  17.9 °C 60.7 °F /  15.9 °C 30.12in /  1019.9hPa Calm     88% 0.00in /  0mm 0 W/m2
00:14 64.2 °F /  17.9 °C 60.6 °F /  15.9 °C 30.12in /  1019.9hPa Calm     88% 0.00in /  0mm 0 W/m2
00:19 64.1 °F /  17.8 °C 60.5 °F /  15.8 °C 30.12in /  1019.9hPa Calm     88% 0.00in /  0mm 0 W/m2
00:24 64 °F /  17.8 °C 60.4 °F /  15.8 °C 30.12in /  1019.9hPa Calm     88% 0.00in /  0mm 0 W/m2
00:29 63.9 °F /  17.7 °C 60.3 °F /  15.7 °C 30.12in /  1019.9hPa Calm     88% 0.00in /  0mm 0 W/m2
00:34 63.9 °F /  17.7 °C 60.5 °F /  15.8 °C 30.12in /  1019.9hPa Calm     88.8% 0.00in /  0mm 0 W/m2
00:39 63.8 °F /  17.7 °C 60.5 °F /  15.8 °C 30.12in /  1019.9hPa Calm     89% 0.00in /  0mm 0 W/m2
00:44 63.7 °F /  17.6 °C 60.4 °F /  15.8 °C 30.12in /  1019.9hPa Calm     89% 0.00in /  0mm 0 W/m2
00:49 63.6 °F /  17.6 °C 60.3 °F /  15.7 °C 30.12in /  1019.9hPa Calm     89% 0.00in /  0mm 0 W/m2
00:54 63.5 °F /  17.5 °C 60.2 °F /  15.7 °C 30.12in /  1019.9hPa Calm     89% 0.00in /  0mm 0 W/m2
00:59 63.4 °F /  17.4 °C 60.1 °F /  15.6 °C 30.12in /  1019.9hPa Calm     89% 0.00in /  0mm 0 W/m2
01:04 63.3 °F /  17.4 °C 60 °F /  15.6 °C 30.13in /  1020.2hPa Calm     89% 0.00in /  0mm 0 W/m2
01:09 63.2 °F /  17.3 °C 59.9 °F /  15.5 °C 30.13in /  1020.2hPa Calm     89% 0.00in /  0mm 0 W/m2
01:14 63.1 °F /  17.3 °C 59.8 °F /  15.4 °C 30.13in /  1020.2hPa Calm     89% 0.00in /  0mm 0 W/m2
01:19 63 °F /  17.2 °C 59.7 °F /  15.4 °C 30.13in /  1020.2hPa Calm     89% 0.00in /  0mm 0 W/m2
01:24 62.9 °F /  17.2 °C 59.6 °F /  15.3 °C 30.13in /  1020.2hPa Calm     89.1% 0.00in /  0mm 0 W/m2
01:29 62.7 °F /  17.1 °C 59.8 °F /  15.4 °C 30.13in /  1020.2hPa Calm     90% 0.00in /  0mm 0 W/m2
01:34 62.6 °F /  17 °C 59.6 °F /  15.3 °C 30.13in /  1020.2hPa Calm     90% 0.00in /  0mm 0 W/m2
01:39 62.5 °F /  16.9 °C 59.5 °F /  15.3 °C 30.14in /  1020.5hPa Calm     90% 0.00in /  0mm 0 W/m2
01:44 62.4 °F /  16.9 °C 59.4 °F /  15.2 °C 30.13in /  1020.2hPa Calm     90% 0.00in /  0mm 0 W/m2
01:49 62.3 °F /  16.8 °C 59.3 °F /  15.2 °C 30.13in /  1020.2hPa Calm     90% 0.00in /  0mm 0 W/m2
01:54 62.2 °F /  16.8 °C 59.3 °F /  15.2 °C 30.13in /  1020.2hPa Calm     90.2% 0.00in /  0mm 0 W/m2
01:59 62.2 °F /  16.8 °C 59.6 °F /  15.3 °C 30.13in /  1020.2hPa Calm     91% 0.00in /  0mm 0 W/m2
02:04 62.2 °F /  16.8 °C 59.5 °F /  15.3 °C 30.14in /  1020.5hPa Calm     91% 0.00in /  0mm 0 W/m2
02:09 62.1 °F /  16.7 °C 59.5 °F /  15.3 °C 30.13in /  1020.2hPa Calm     91% 0.00in /  0mm 0 W/m2
02:14 62.1 °F /  16.7 °C 59.4 °F /  15.2 °C 30.13in /  1020.2hPa Calm     91% 0.00in /  0mm 0 W/m2
02:19 62 °F /  16.7 °C 59.4 °F /  15.2 °C 30.14in /  1020.5hPa Calm     91% 0.00in /  0mm 0 W/m2
02:24 62.1 °F /  16.7 °C 59.4 °F /  15.2 °C 30.14in /  1020.5hPa Calm     91% 0.00in /  0mm 0 W/m2
02:29 62.1 °F /  16.7 °C 59.5 °F /  15.3 °C 30.14in /  1020.5hPa Calm     91% 0.00in /  0mm 0 W/m2
02:34 62.1 °F /  16.7 °C 59.4 °F /  15.2 °C 30.14in /  1020.5hPa Calm     91% 0.00in /  0mm 0 W/m2
02:39 62 °F /  16.7 °C 59.4 °F /  15.2 °C 30.14in /  1020.5hPa Calm     91% 0.00in /  0mm 0 W/m2
02:44 62 °F /  16.7 °C 59.3 °F /  15.2 °C 30.14in /  1020.5hPa Calm     91% 0.00in /  0mm 0 W/m2
02:49 61.9 °F /  16.6 °C 59.3 °F /  15.2 °C 30.14in /  1020.5hPa Calm     91% 0.00in /  0mm 0 W/m2
02:54 61.9 °F /  16.6 °C 59.3 °F /  15.2 °C 30.14in /  1020.5hPa Calm     91% 0.00in /  0mm 0 W/m2
02:59 61.9 °F /  16.6 °C 59.2 °F /  15.1 °C 30.14in /  1020.5hPa Calm     91% 0.00in /  0mm 0 W/m2
03:04 61.9 °F /  16.6 °C 59.2 °F /  15.1 °C 30.14in /  1020.5hPa Calm     91% 0.00in /  0mm 0 W/m2
03:09 61.9 °F /  16.6 °C 59.2 °F /  15.1 °C 30.14in /  1020.5hPa Calm     91% 0.00in /  0mm 0 W/m2
03:14 61.8 °F /  16.6 °C 59.2 °F /  15.1 °C 30.14in /  1020.5hPa Calm     91% 0.00in /  0mm 0 W/m2
03:19 61.8 °F /  16.6 °C 59.2 °F /  15.1 °C 30.14in /  1020.5hPa Calm     91% 0.00in /  0mm 0 W/m2
03:24 61.8 °F /  16.6 °C 59.1 °F /  15.1 °C 30.14in /  1020.5hPa Calm     91% 0.00in /  0mm 0 W/m2
03:29 61.7 °F /  16.5 °C 59 °F /  15 °C 30.14in /  1020.5hPa Calm     91% 0.00in /  0mm 0 W/m2
03:34 61.6 °F /  16.4 °C 58.9 °F /  14.9 °C 30.14in /  1020.5hPa Calm     91% 0.00in /  0mm 0 W/m2
03:39 61.5 °F /  16.4 °C 58.9 °F /  14.9 °C 30.14in /  1020.5hPa Calm     91% 0.00in /  0mm 0 W/m2
03:44 61.4 °F /  16.3 °C 58.7 °F /  14.8 °C 30.14in /  1020.5hPa Calm     91% 0.00in /  0mm 0 W/m2
03:49 61.3 °F /  16.3 °C 58.6 °F /  14.8 °C 30.14in /  1020.5hPa Calm     91% 0.00in /  0mm 0 W/m2
03:54 61.1 °F /  16.2 °C 58.5 °F /  14.7 °C 30.14in /  1020.5hPa Calm     91% 0.00in /  0mm 0 W/m2
03:59 61 °F /  16.1 °C 58.3 °F /  14.6 °C 30.14in /  1020.5hPa Calm     91% 0.00in /  0mm 0 W/m2
04:09 60.7 °F /  15.9 °C 58.1 °F /  14.5 °C 30.14in /  1020.5hPa Calm     91% 0.00in /  0mm 0 W/m2
04:14 60.5 °F /  15.8 °C 57.9 °F /  14.4 °C 30.15in /  1020.9hPa Calm     91% 0.00in /  0mm 0 W/m2
04:19 60.4 °F /  15.8 °C 57.8 °F /  14.3 °C 30.15in /  1020.9hPa Calm     91% 0.00in /  0mm 0 W/m2
04:24 60.3 °F /  15.7 °C 57.9 °F /  14.4 °C 30.14in /  1020.5hPa Calm     91.7% 0.00in /  0mm 0 W/m2
04:29 60.2 °F /  15.7 °C 57.8 °F /  14.3 °C 30.15in /  1020.9hPa Calm     92% 0.00in /  0mm 0 W/m2
04:34 60.1 °F /  15.6 °C 57.8 °F /  14.3 °C 30.15in /  1020.9hPa Calm     92% 0.00in /  0mm 0 W/m2
04:39 60 °F /  15.6 °C 57.7 °F /  14.3 °C 30.15in /  1020.9hPa Calm     92% 0.00in /  0mm 0 W/m2
04:44 59.9 °F /  15.5 °C 57.6 °F /  14.2 °C 30.15in /  1020.9hPa Calm     92% 0.00in /  0mm 0 W/m2
04:49 59.8 °F /  15.4 °C 57.5 °F /  14.2 °C 30.15in /  1020.9hPa Calm     92% 0.00in /  0mm 0 W/m2
04:54 59.7 °F /  15.4 °C 57.4 °F /  14.1 °C 30.15in /  1020.9hPa Calm     92% 0.00in /  0mm 0 W/m2
04:59 59.6 °F /  15.3 °C 57.3 °F /  14.1 °C 30.15in /  1020.9hPa Calm     92% 0.00in /  0mm 0 W/m2
05:04 59.5 °F /  15.3 °C 57.2 °F /  14 °C 30.15in /  1020.9hPa Calm     92% 0.00in /  0mm 0 W/m2
05:09 59.4 °F /  15.2 °C 57.1 °F /  13.9 °C 30.15in /  1020.9hPa Calm     92% 0.00in /  0mm 0 W/m2
05:14 59.3 °F /  15.2 °C 57 °F /  13.9 °C 30.15in /  1020.9hPa Calm     92% 0.00in /  0mm 0 W/m2
05:19 59.3 °F /  15.2 °C 57.2 °F /  14 °C 30.15in /  1020.9hPa Calm     93% 0.00in /  0mm 0 W/m2
05:24 59.1 °F /  15.1 °C 57.1 °F /  13.9 °C 30.16in /  1021.2hPa Calm     93% 0.00in /  0mm 0 W/m2
05:29 59 °F /  15 °C 57.1 °F /  13.9 °C 30.16in /  1021.2hPa Calm     93.4% 0.00in /  0mm 0 W/m2
05:34 58.9 °F /  14.9 °C 56.9 °F /  13.8 °C 30.15in /  1020.9hPa Calm     93% 0.00in /  0mm 0 W/m2
05:39 58.9 °F /  14.9 °C 56.9 °F /  13.8 °C 30.15in /  1020.9hPa Calm     93% 0.00in /  0mm 0 W/m2
05:44 58.8 °F /  14.9 °C 56.8 °F /  13.8 °C 30.16in /  1021.2hPa Calm     93% 0.00in /  0mm 0 W/m2
05:49 58.8 °F /  14.9 °C 56.8 °F /  13.8 °C 30.16in /  1021.2hPa Calm     93% 0.00in /  0mm 0 W/m2
05:54 58.9 °F /  14.9 °C 57 °F /  13.9 °C 30.16in /  1021.2hPa Calm     93.6% 0.00in /  0mm 0 W/m2
05:59 58.8 °F /  14.9 °C 57.1 °F /  13.9 °C 30.16in /  1021.2hPa Calm     93.9% 0.00in /  0mm 0 W/m2
06:04 58.8 °F /  14.9 °C 57 °F /  13.9 °C 30.16in /  1021.2hPa Calm     93.9% 0.00in /  0mm 0 W/m2
06:09 58.7 °F /  14.8 °C 57 °F /  13.9 °C 30.16in /  1021.2hPa Calm     94% 0.00in /  0mm 0 W/m2
06:14 58.6 °F /  14.8 °C 56.9 °F /  13.8 °C 30.16in /  1021.2hPa Calm     94% 0.00in /  0mm 0 W/m2
06:19 58.6 °F /  14.8 °C 56.6 °F /  13.7 °C 30.17in /  1021.6hPa Calm     93.3% 0.00in /  0mm 0 W/m2
06:24 58.5 °F /  14.7 °C 56.5 °F /  13.6 °C 30.17in /  1021.6hPa Calm     93.3% 0.00in /  0mm 0 W/m2
06:29 58.4 °F /  14.7 °C 56.7 °F /  13.7 °C 30.18in /  1021.9hPa Calm     94% 0.00in /  0mm 0 W/m2
06:34 58.3 °F /  14.6 °C 56.6 °F /  13.7 °C 30.18in /  1021.9hPa Calm     94% 0.00in /  0mm 5 W/m2
06:39 58.2 °F /  14.6 °C 56.5 °F /  13.6 °C 30.18in /  1021.9hPa Calm     94% 0.00in /  0mm 9 W/m2
06:44 58.1 °F /  14.5 °C 56.4 °F /  13.6 °C 30.18in /  1021.9hPa Calm     94% 0.00in /  0mm 12 W/m2
06:49 58 °F /  14.4 °C 56.3 °F /  13.5 °C 30.18in /  1021.9hPa Calm     94% 0.00in /  0mm 16 W/m2
06:54 58 °F /  14.4 °C 56.3 °F /  13.5 °C 30.18in /  1021.9hPa Calm     94% 0.00in /  0mm 21 W/m2
06:59 58 °F /  14.4 °C 56.3 °F /  13.5 °C 30.19in /  1022.2hPa Calm     94% 0.00in /  0mm 28 W/m2
07:04 58.1 °F /  14.5 °C 56.4 °F /  13.6 °C 30.19in /  1022.2hPa Calm     94% 0.00in /  0mm 32 W/m2
07:09 58.2 °F /  14.6 °C 56.5 °F /  13.6 °C 30.19in /  1022.2hPa Calm     94.1% 0.00in /  0mm 33 W/m2
07:14 58.3 °F /  14.6 °C 56.9 °F /  13.8 °C 30.19in /  1022.2hPa Calm     95% 0.00in /  0mm 35 W/m2
07:19 58.5 °F /  14.7 °C 57.1 °F /  13.9 °C 30.19in /  1022.2hPa Calm     95% 0.00in /  0mm 37 W/m2
07:24 58.6 °F /  14.8 °C 57.2 °F /  14 °C 30.19in /  1022.2hPa Calm     95% 0.00in /  0mm 40 W/m2
07:29 58.8 °F /  14.9 °C 57.4 °F /  14.1 °C 30.19in /  1022.2hPa Calm     95% 0.00in /  0mm 44 W/m2
07:34 59 °F /  15 °C 57.6 °F /  14.2 °C 30.19in /  1022.2hPa Calm     95% 0.00in /  0mm 46 W/m2
07:39 59.3 °F /  15.2 °C 57.8 °F /  14.3 °C 30.19in /  1022.2hPa Calm     95% 0.00in /  0mm 49 W/m2
07:44 59.5 °F /  15.3 °C 58.1 °F /  14.5 °C 30.19in /  1022.2hPa Calm     95% 0.00in /  0mm 53 W/m2
07:49 59.8 °F /  15.4 °C 58.3 °F /  14.6 °C 30.19in /  1022.2hPa Calm     95% 0.00in /  0mm 54 W/m2
07:54 60.1 °F /  15.6 °C 58.7 °F /  14.8 °C 30.19in /  1022.2hPa Calm     95.1% 0.00in /  0mm 60 W/m2
07:59 60.4 °F /  15.8 °C 59.2 °F /  15.1 °C 30.19in /  1022.2hPa Calm     95.7% 0.00in /  0mm 63 W/m2
08:00 60.6 °F /  15.9 °C 59.5 °F /  15.3 °C 30.19in /  1022.2hPa Calm     96% 0.00in /  0mm 63 W/m2
08:09 61 °F /  16.1 °C 59.7 °F /  15.4 °C 30.19in /  1022.2hPa Calm     95.7% 0.00in /  0mm 74 W/m2
08:14 61.2 °F /  16.2 °C 59.9 °F /  15.5 °C 30.19in /  1022.2hPa Calm     95.4% 0.00in /  0mm 81 W/m2
08:19 61.4 °F /  16.3 °C 59.9 °F /  15.5 °C 30.19in /  1022.2hPa Calm     95% 0.00in /  0mm 90 W/m2
08:24 61.7 °F /  16.5 °C 60.4 °F /  15.8 °C 30.20in /  1022.6hPa Calm     95.5% 0.00in /  0mm 95 W/m2
08:29 61.9 °F /  16.6 °C 60.6 °F /  15.9 °C 30.20in /  1022.6hPa Calm     95.5% 0.00in /  0mm 151 W/m2
08:34 62.2 °F /  16.8 °C 60.8 °F /  16 °C 30.20in /  1022.6hPa Calm     95% 0.00in /  0mm 281 W/m2
08:39 62.7 °F /  17.1 °C 61.2 °F /  16.2 °C 30.20in /  1022.6hPa Calm     95% 0.00in /  0mm 299 W/m2
08:44 63.2 °F /  17.3 °C 61.7 °F /  16.5 °C 30.20in /  1022.6hPa Calm   1mph /  1.6km/h 95% 0.00in /  0mm 315 W/m2
08:49 63.9 °F /  17.7 °C 62.4 °F /  16.9 °C 30.20in /  1022.6hPa Calm   1mph /  1.6km/h 95% 0.00in /  0mm 330 W/m2
08:54 64.7 °F /  18.2 °C 63 °F /  17.2 °C 30.20in /  1022.6hPa Calm   1mph /  1.6km/h 94.1% 0.00in /  0mm 348 W/m2
08:59 65.5 °F /  18.6 °C 63.5 °F /  17.5 °C 30.20in /  1022.6hPa Calm   1mph /  1.6km/h 93.1% 0.00in /  0mm 374 W/m2
09:04 66.4 °F /  19.1 °C 63.9 °F /  17.7 °C 30.20in /  1022.6hPa Calm   1mph /  1.6km/h 91.5% 0.00in /  0mm 396 W/m2
09:09 67.3 °F /  19.6 °C 63.9 °F /  17.7 °C 30.20in /  1022.6hPa Calm     88.8% 0.00in /  0mm 413 W/m2
09:14 68 °F /  20 °C 63.5 °F /  17.5 °C 30.20in /  1022.6hPa Calm     85.6% 0.00in /  0mm 431 W/m2
09:19 68.9 °F /  20.5 °C 63.7 °F /  17.6 °C 30.21in /  1022.9hPa Calm     83.6% 0.00in /  0mm 446 W/m2
09:24 70 °F /  21.1 °C 64.1 °F /  17.8 °C 30.21in /  1022.9hPa Calm     81.5% 0.00in /  0mm 466 W/m2
09:29 70.9 °F /  21.6 °C 64.2 °F /  17.9 °C 30.21in /  1022.9hPa Calm     79.4% 0.00in /  0mm 480 W/m2
09:34 71.9 °F /  22.2 °C 64.7 °F /  18.2 °C 30.21in /  1022.9hPa Calm     78.2% 0.00in /  0mm 494 W/m2
09:39 72.7 °F /  22.6 °C 64.6 °F /  18.1 °C 30.21in /  1022.9hPa Calm     75.7% 0.00in /  0mm 513 W/m2
09:44 73.5 °F /  23.1 °C 64.8 °F /  18.2 °C 30.22in /  1023.2hPa Calm     74.1% 0.00in /  0mm 527 W/m2
09:49 74.2 °F /  23.4 °C 64.4 °F /  18 °C 30.22in /  1023.2hPa Calm     71.5% 0.00in /  0mm 541 W/m2
09:54 74.8 °F /  23.8 °C 64.2 °F /  17.9 °C 30.22in /  1023.2hPa Calm     69.6% 0.00in /  0mm 563 W/m2
09:59 75.1 °F /  23.9 °C 64.7 °F /  18.2 °C 30.22in /  1023.2hPa Calm     70% 0.00in /  0mm 578 W/m2
10:04 75.2 °F /  24 °C 64.7 °F /  18.2 °C 30.22in /  1023.2hPa Calm     70% 0.00in /  0mm 592 W/m2
10:09 75.5 °F /  24.2 °C 65.4 °F /  18.6 °C 30.22in /  1023.2hPa Calm     70.8% 0.00in /  0mm 606 W/m2
10:14 76.2 °F /  24.6 °C 66 °F /  18.9 °C 30.21in /  1022.9hPa Calm     70.7% 0.00in /  0mm 622 W/m2
10:19 76.8 °F /  24.9 °C 65.2 °F /  18.4 °C 30.21in /  1022.9hPa Calm     67.6% 0.00in /  0mm 631 W/m2
10:24 77.1 °F /  25.1 °C 65.2 °F /  18.4 °C 30.21in /  1022.9hPa Calm     66.9% 0.00in /  0mm 652 W/m2
10:29 77.4 °F /  25.2 °C 65.8 °F /  18.8 °C 30.21in /  1022.9hPa Calm     67.4% 0.00in /  0mm 659 W/m2
10:34 78 °F /  25.6 °C 66.1 °F /  18.9 °C 30.21in /  1022.9hPa Calm     66.8% 0.00in /  0mm 663 W/m2
10:39 78.7 °F /  25.9 °C 66.6 °F /  19.2 °C 30.21in /  1022.9hPa Calm     66.4% 0.00in /  0mm 650 W/m2
10:44 79.2 °F /  26.2 °C 66.5 °F /  19.2 °C 30.21in /  1022.9hPa Calm     65.1% 0.00in /  0mm 654 W/m2
10:49 79.6 °F /  26.4 °C 66.4 °F /  19.1 °C 30.20in /  1022.6hPa Calm     64% 0.00in /  0mm 668 W/m2
10:54 80 °F /  26.7 °C 65.8 °F /  18.8 °C 30.20in /  1022.6hPa Calm     62.1% 0.00in /  0mm 679 W/m2
10:59 80.3 °F /  26.8 °C 66 °F /  18.9 °C 30.20in /  1022.6hPa Calm     61.8% 0.00in /  0mm 687 W/m2
11:04 80.6 °F /  27 °C 66.7 °F /  19.3 °C 30.20in /  1022.6hPa Calm     62.6% 0.00in /  0mm 693 W/m2
11:09 80.8 °F /  27.1 °C 66.7 °F /  19.3 °C 30.20in /  1022.6hPa NNW 0.3mph /  0.5km/h 3mph /  4.8km/h 62.3% 0.00in /  0mm 705 W/m2
11:14 81.1 °F /  27.3 °C 66.3 °F /  19.1 °C 30.20in /  1022.6hPa Calm   3mph /  4.8km/h 60.8% 0.00in /  0mm 715 W/m2
11:19 81.5 °F /  27.5 °C 66 °F /  18.9 °C 30.20in /  1022.6hPa Calm   3mph /  4.8km/h 59.4% 0.00in /  0mm 722 W/m2
11:24 81.8 °F /  27.7 °C 67 °F /  19.4 °C 30.20in /  1022.6hPa Calm   3mph /  4.8km/h 60.9% 0.00in /  0mm 731 W/m2
11:29 82 °F /  27.8 °C 66.4 °F /  19.1 °C 30.20in /  1022.6hPa Calm   3mph /  4.8km/h 59.3% 0.00in /  0mm 731 W/m2
11:34 82.3 °F /  27.9 °C 66.8 °F /  19.3 °C 30.20in /  1022.6hPa Calm   3mph /  4.8km/h 59.3% 0.00in /  0mm 714 W/m2
11:39 82.5 °F /  28.1 °C 66.3 °F /  19.1 °C 30.20in /  1022.6hPa Calm   1mph /  1.6km/h 58.1% 0.00in /  0mm 751 W/m2
11:44 82.5 °F /  28.1 °C 66.6 °F /  19.2 °C 30.20in /  1022.6hPa Calm   1mph /  1.6km/h 58.8% 0.00in /  0mm 759 W/m2
11:49 82.2 °F /  27.9 °C 66.6 °F /  19.2 °C 30.20in /  1022.6hPa Calm   1mph /  1.6km/h 59.3% 0.00in /  0mm 701 W/m2
11:54 82 °F /  27.8 °C 65.9 °F /  18.8 °C 30.19in /  1022.2hPa Calm   1mph /  1.6km/h 58.1% 0.00in /  0mm 142 W/m2
11:59 81.8 °F /  27.7 °C 65.5 °F /  18.6 °C 30.19in /  1022.2hPa Calm   1mph /  1.6km/h 57.9% 0.00in /  0mm 134 W/m2
12:00 81.6 °F /  27.6 °C 64.4 °F /  18 °C 30.19in /  1022.2hPa Calm   1mph /  1.6km/h 56% 0.00in /  0mm 127 W/m2
12:09 81.2 °F /  27.3 °C 65 °F /  18.3 °C 30.19in /  1022.2hPa Calm     57.9% 0.00in /  0mm 111 W/m2
12:14 81.2 °F /  27.3 °C 66 °F /  18.9 °C 30.19in /  1022.2hPa Calm   1mph /  1.6km/h 60% 0.00in /  0mm 114 W/m2
12:19 81.2 °F /  27.3 °C 65.8 °F /  18.8 °C 30.19in /  1022.2hPa Calm   1mph /  1.6km/h 59.4% 0.00in /  0mm 141 W/m2
12:24 81.1 °F /  27.3 °C 64.6 °F /  18.1 °C 30.18in /  1021.9hPa Calm   1mph /  1.6km/h 57.2% 0.00in /  0mm 163 W/m2
12:29 81.1 °F /  27.3 °C 66.1 °F /  18.9 °C 30.18in /  1021.9hPa NNW 0.3mph /  0.5km/h 4mph /  6.4km/h 60.4% 0.00in /  0mm 188 W/m2
12:34 81.3 °F /  27.4 °C 66.2 °F /  19 °C 30.19in /  1022.2hPa Calm   4mph /  6.4km/h 60.3% 0.00in /  0mm 176 W/m2
12:39 81.6 °F /  27.6 °C 66 °F /  18.9 °C 30.18in /  1021.9hPa Calm     59.2% 0.00in /  0mm 192 W/m2
12:44 81.9 °F /  27.7 °C 65.5 °F /  18.6 °C 30.18in /  1021.9hPa Calm     57.6% 0.00in /  0mm 207 W/m2
12:49 82.1 °F /  27.8 °C 65.2 °F /  18.4 °C 30.18in /  1021.9hPa NNW 0.3mph /  0.5km/h 3mph /  4.8km/h 56.8% 0.00in /  0mm 243 W/m2
12:54 82.1 °F /  27.8 °C 65.6 °F /  18.7 °C 30.18in /  1021.9hPa NNW 0.1mph /  0.2km/h 3mph /  4.8km/h 57.5% 0.00in /  0mm 220 W/m2
12:59 82.1 °F /  27.8 °C 65.4 °F /  18.6 °C 30.18in /  1021.9hPa Calm   3mph /  4.8km/h 57.2% 0.00in /  0mm 668 W/m2
13:04 82 °F /  27.8 °C 65.7 °F /  18.7 °C 30.18in /  1021.9hPa Calm   3mph /  4.8km/h 57.9% 0.00in /  0mm 633 W/m2
13:09 82.1 °F /  27.8 °C 64.9 °F /  18.3 °C 30.18in /  1021.9hPa Calm     56.1% 0.00in /  0mm 237 W/m2
13:14 82.1 °F /  27.8 °C 64.6 °F /  18.1 °C 30.18in /  1021.9hPa Calm     55.4% 0.00in /  0mm 257 W/m2
13:19 82.2 °F /  27.9 °C 64.9 °F /  18.3 °C 30.17in /  1021.6hPa Calm     56% 0.00in /  0mm 105 W/m2
13:24 82.1 °F /  27.8 °C 64 °F /  17.8 °C 30.17in /  1021.6hPa Calm     54.3% 0.00in /  0mm 141 W/m2
13:29 82.1 °F /  27.8 °C 64.4 °F /  18 °C 30.17in /  1021.6hPa Calm     55.2% 0.00in /  0mm 141 W/m2
13:34 82.1 °F /  27.8 °C 64.1 °F /  17.8 °C 30.17in /  1021.6hPa Calm     54.5% 0.00in /  0mm 141 W/m2
13:39 82.3 °F /  27.9 °C 65.4 °F /  18.6 °C 30.17in /  1021.6hPa Calm     56.7% 0.00in /  0mm 141 W/m2
13:44 82.5 °F /  28.1 °C 64.9 °F /  18.3 °C 30.17in /  1021.6hPa NW 0.4mph /  0.6km/h 5mph /  8km/h 55.3% 0.00in /  0mm 109 W/m2
13:49 82.8 °F /  28.2 °C 64.6 °F /  18.1 °C 30.17in /  1021.6hPa NW 0.1mph /  0.2km/h 5mph /  8km/h 54.3% 0.00in /  0mm 109 W/m2
13:54 83 °F /  28.3 °C 64.5 °F /  18.1 °C 30.17in /  1021.6hPa Calm   5mph /  8km/h 53.9% 0.00in /  0mm 97 W/m2
13:59 83 °F /  28.3 °C 64.5 °F /  18.1 °C 30.17in /  1021.6hPa NW 0.5mph /  0.8km/h 5mph /  8km/h 53.7% 0.00in /  0mm 91 W/m2
14:04 83.2 °F /  28.4 °C 65.2 °F /  18.4 °C 30.17in /  1021.6hPa WNW 0.7mph /  1.1km/h 5mph /  8km/h 54.6% 0.00in /  0mm 91 W/m2
14:09 83.3 °F /  28.5 °C 63.7 °F /  17.6 °C 30.17in /  1021.6hPa Calm   5mph /  8km/h 51.6% 0.00in /  0mm 137 W/m2
14:14 83.3 °F /  28.5 °C 64.3 °F /  17.9 °C 30.16in /  1021.2hPa WNW 0.4mph /  0.6km/h 5mph /  8km/h 52.7% 0.00in /  0mm 468 W/m2
14:19 83.4 °F /  28.6 °C 64.1 °F /  17.8 °C 30.16in /  1021.2hPa WNW 0.3mph /  0.5km/h 5mph /  8km/h 52.3% 0.00in /  0mm 373 W/m2
14:24 83.6 °F /  28.7 °C 64.4 °F /  18 °C 30.16in /  1021.2hPa WNW 0.7mph /  1.1km/h 5mph /  8km/h 52.5% 0.00in /  0mm 512 W/m2
14:29 84 °F /  28.9 °C 64.9 °F /  18.3 °C 30.16in /  1021.2hPa Calm   5mph /  8km/h 52.9% 0.00in /  0mm 584 W/m2
14:34 84.3 °F /  29.1 °C 65.8 °F /  18.8 °C 30.16in /  1021.2hPa WNW 0.5mph /  0.8km/h 5mph /  8km/h 53.9% 0.00in /  0mm 452 W/m2
14:39 84.6 °F /  29.2 °C 65.6 °F /  18.7 °C 30.16in /  1021.2hPa Calm   4mph /  6.4km/h 53.1% 0.00in /  0mm 571 W/m2
14:44 84.7 °F /  29.3 °C 65.9 °F /  18.8 °C 30.16in /  1021.2hPa WNW 0.4mph /  0.6km/h 4mph /  6.4km/h 53.5% 0.00in /  0mm 726 W/m2
14:49 84.9 °F /  29.4 °C 65.8 °F /  18.8 °C 30.16in /  1021.2hPa WNW 1mph /  1.6km/h 6mph /  9.7km/h 52.8% 0.00in /  0mm 719 W/m2
14:54 85.3 °F /  29.6 °C 65.9 °F /  18.8 °C 30.16in /  1021.2hPa WNW 0.5mph /  0.8km/h 6mph /  9.7km/h 52.3% 0.00in /  0mm 705 W/m2
14:59 85.7 °F /  29.8 °C 65.6 °F /  18.7 °C 30.15in /  1020.9hPa WNW 0.2mph /  0.3km/h 6mph /  9.7km/h 51.2% 0.00in /  0mm 663 W/m2
15:04 85.9 °F /  29.9 °C 65.4 °F /  18.6 °C 30.15in /  1020.9hPa WNW 1.1mph /  1.8km/h 6mph /  9.7km/h 50.6% 0.00in /  0mm 673 W/m2
15:09 85.9 °F /  29.9 °C 65.5 °F /  18.6 °C 30.15in /  1020.9hPa WNW 0.4mph /  0.6km/h 4mph /  6.4km/h 50.8% 0.00in /  0mm 652 W/m2
15:14 85.9 °F /  29.9 °C 65.4 °F /  18.6 °C 30.15in /  1020.9hPa Calm   4mph /  6.4km/h 50.5% 0.00in /  0mm 689 W/m2
15:19 86 °F /  30 °C 65.3 °F /  18.5 °C 30.15in /  1020.9hPa WNW 0.1mph /  0.2km/h 4mph /  6.4km/h 50.2% 0.00in /  0mm 689 W/m2
15:24 86.3 °F /  30.2 °C 66.2 °F /  19 °C 30.15in /  1020.9hPa WNW 0.7mph /  1.1km/h 4mph /  6.4km/h 51.2% 0.00in /  0mm 661 W/m2
15:29 86.6 °F /  30.3 °C 65.3 °F /  18.5 °C 30.14in /  1020.5hPa WNW 0.4mph /  0.6km/h 4mph /  6.4km/h 49.3% 0.00in /  0mm 638 W/m2
15:34 86.8 °F /  30.4 °C 65.4 °F /  18.6 °C 30.14in /  1020.5hPa WNW 0.8mph /  1.3km/h 4mph /  6.4km/h 49.1% 0.00in /  0mm 612 W/m2
15:39 87 °F /  30.6 °C 66 °F /  18.9 °C 30.14in /  1020.5hPa WNW 0.8mph /  1.3km/h 4mph /  6.4km/h 49.9% 0.00in /  0mm 612 W/m2
15:44 87 °F /  30.6 °C 64.5 °F /  18.1 °C 30.14in /  1020.5hPa Calm   4mph /  6.4km/h 47.1% 0.00in /  0mm 582 W/m2
15:49 87.2 °F /  30.7 °C 65.7 °F /  18.7 °C 30.14in /  1020.5hPa WNW 0.1mph /  0.2km/h 4mph /  6.4km/h 48.9% 0.00in /  0mm 577 W/m2
15:54 87.4 °F /  30.8 °C 65.7 °F /  18.7 °C 30.14in /  1020.5hPa WNW 0.5mph /  0.8km/h 4mph /  6.4km/h 48.6% 0.00in /  0mm 564 W/m2
15:59 87.3 °F /  30.7 °C 65.5 °F /  18.6 °C 30.14in /  1020.5hPa WNW 0.5mph /  0.8km/h 4mph /  6.4km/h 48.5% 0.00in /  0mm 531 W/m2
16:09 86.9 °F /  30.5 °C 65.9 °F /  18.8 °C 30.14in /  1020.5hPa Calm     49.8% 0.00in /  0mm 74 W/m2
16:14 86.6 °F /  30.3 °C 65.7 °F /  18.7 °C 30.14in /  1020.5hPa WNW 0.3mph /  0.5km/h 2mph /  3.2km/h 49.8% 0.00in /  0mm 67 W/m2
16:19 86.5 °F /  30.3 °C 65.6 °F /  18.7 °C 30.14in /  1020.5hPa WNW 0.1mph /  0.2km/h 2mph /  3.2km/h 50% 0.00in /  0mm 70 W/m2
16:24 86.2 °F /  30.1 °C 65.4 °F /  18.6 °C 30.14in /  1020.5hPa Calm   2mph /  3.2km/h 50% 0.00in /  0mm 88 W/m2
16:29 85.9 °F /  29.9 °C 65.2 °F /  18.4 °C 30.14in /  1020.5hPa WNW 0.3mph /  0.5km/h 5mph /  8km/h 50.1% 0.00in /  0mm 88 W/m2
16:34 85.6 °F /  29.8 °C 64.4 °F /  18 °C 30.14in /  1020.5hPa Calm   5mph /  8km/h 49.3% 0.00in /  0mm 76 W/m2
16:39 85.3 °F /  29.6 °C 64.6 °F /  18.1 °C 30.13in /  1020.2hPa Calm     50% 0.00in /  0mm 63 W/m2
16:44 85.1 °F /  29.5 °C 64.5 °F /  18.1 °C 30.13in /  1020.2hPa Calm     50.2% 0.00in /  0mm 58 W/m2
16:49 84.9 °F /  29.4 °C 64.7 °F /  18.2 °C 30.13in /  1020.2hPa WNW 0.2mph /  0.3km/h 3mph /  4.8km/h 50.9% 0.00in /  0mm 56 W/m2
16:54 84.8 °F /  29.3 °C 65.2 °F /  18.4 °C 30.13in /  1020.2hPa Calm   3mph /  4.8km/h 52% 0.00in /  0mm 77 W/m2
16:59 84.7 °F /  29.3 °C 64.7 °F /  18.2 °C 30.13in /  1020.2hPa Calm   3mph /  4.8km/h 51.3% 0.00in /  0mm 93 W/m2
17:04 84.5 °F /  29.2 °C 64.5 °F /  18.1 °C 30.13in /  1020.2hPa Calm   3mph /  4.8km/h 51.2% 0.00in /  0mm 93 W/m2
17:09 84.5 °F /  29.2 °C 64.8 °F /  18.2 °C 30.13in /  1020.2hPa Calm     51.7% 0.00in /  0mm 84 W/m2
17:14 84.5 °F /  29.2 °C 63.7 °F /  17.6 °C 30.13in /  1020.2hPa Calm     49.8% 0.00in /  0mm 69 W/m2
17:19 84.4 °F /  29.1 °C 64.2 °F /  17.9 °C 30.13in /  1020.2hPa Calm     50.8% 0.00in /  0mm 58 W/m2
17:24 84.3 °F /  29.1 °C 63.8 °F /  17.7 °C 30.13in /  1020.2hPa Calm     50.2% 0.00in /  0mm 51 W/m2
17:29 84.3 °F /  29.1 °C 63.7 °F /  17.6 °C 30.13in /  1020.2hPa Calm     50.1% 0.00in /  0mm 47 W/m2
17:34 84.1 °F /  28.9 °C 63.6 °F /  17.6 °C 30.13in /  1020.2hPa Calm     50.1% 0.00in /  0mm 46 W/m2
17:39 84 °F /  28.9 °C 62.9 °F /  17.2 °C 30.13in /  1020.2hPa Calm     49.2% 0.00in /  0mm 44 W/m2
17:44 83.9 °F /  28.8 °C 63.2 °F /  17.3 °C 30.13in /  1020.2hPa Calm     49.8% 0.00in /  0mm 39 W/m2
17:49 83.7 °F /  28.7 °C 63.1 °F /  17.3 °C 30.13in /  1020.2hPa Calm     50% 0.00in /  0mm 37 W/m2
17:54 83.6 °F /  28.7 °C 63.5 °F /  17.5 °C 30.13in /  1020.2hPa Calm     50.9% 0.00in /  0mm 37 W/m2
17:59 83.4 °F /  28.6 °C 63.6 °F /  17.6 °C 30.13in /  1020.2hPa WNW 0.1mph /  0.2km/h 2mph /  3.2km/h 51.3% 0.00in /  0mm 33 W/m2
18:04 83.2 °F /  28.4 °C 63.5 °F /  17.5 °C 30.13in /  1020.2hPa Calm   2mph /  3.2km/h 51.4% 0.00in /  0mm 32 W/m2
18:09 83 °F /  28.3 °C 63 °F /  17.2 °C 30.13in /  1020.2hPa Calm     51% 0.00in /  0mm 32 W/m2
18:14 82.8 °F /  28.2 °C 63.2 °F /  17.3 °C 30.13in /  1020.2hPa Calm     51.5% 0.00in /  0mm 30 W/m2
18:19 82.6 °F /  28.1 °C 62.8 °F /  17.1 °C 30.13in /  1020.2hPa Calm     51.2% 0.00in /  0mm 25 W/m2
18:24 82.4 °F /  28 °C 62.2 °F /  16.8 °C 30.13in /  1020.2hPa Calm     50.5% 0.00in /  0mm 25 W/m2
18:29 82.2 °F /  27.9 °C 62.3 °F /  16.8 °C 30.13in /  1020.2hPa Calm     51% 0.00in /  0mm 21 W/m2
18:34 82 °F /  27.8 °C 62.1 °F /  16.7 °C 30.14in /  1020.5hPa Calm     51.1% 0.00in /  0mm 19 W/m2
18:39 81.7 °F /  27.6 °C 62.4 °F /  16.9 °C 30.14in /  1020.5hPa Calm     52% 0.00in /  0mm 14 W/m2
18:44 81.4 °F /  27.4 °C 62.1 °F /  16.7 °C 30.14in /  1020.5hPa Calm     52% 0.00in /  0mm 11 W/m2
18:49 81.1 °F /  27.3 °C 62.2 °F /  16.8 °C 30.14in /  1020.5hPa Calm     52.7% 0.00in /  0mm 9 W/m2
18:54 80.8 °F /  27.1 °C 62.1 °F /  16.7 °C 30.14in /  1020.5hPa Calm     53% 0.00in /  0mm 5 W/m2
18:59 80.4 °F /  26.9 °C 61.7 °F /  16.5 °C 30.14in /  1020.5hPa Calm     53% 0.00in /  0mm 0 W/m2
19:04 80.1 °F /  26.7 °C 61.5 °F /  16.4 °C 30.14in /  1020.5hPa Calm     53.2% 0.00in /  0mm 0 W/m2
19:09 79.7 °F /  26.5 °C 61.6 °F /  16.4 °C 30.14in /  1020.5hPa Calm     54% 0.00in /  0mm 0 W/m2
19:14 79.3 °F /  26.3 °C 61.7 °F /  16.5 °C 30.14in /  1020.5hPa Calm     54.9% 0.00in /  0mm 0 W/m2
19:19 78.9 °F /  26.1 °C 62.1 °F /  16.7 °C 30.14in /  1020.5hPa Calm     56.3% 0.00in /  0mm 0 W/m2
19:24 78.5 °F /  25.8 °C 61.9 °F /  16.6 °C 30.14in /  1020.5hPa Calm     56.7% 0.00in /  0mm 0 W/m2
19:29 78.2 °F /  25.7 °C 62.2 °F /  16.8 °C 30.14in /  1020.5hPa Calm     58% 0.00in /  0mm 0 W/m2
19:34 77.7 °F /  25.4 °C 61.9 °F /  16.6 °C 30.14in /  1020.5hPa Calm     58.3% 0.00in /  0mm 0 W/m2
19:39 77.3 °F /  25.2 °C 61.8 °F /  16.6 °C 30.14in /  1020.5hPa Calm     58.8% 0.00in /  0mm 0 W/m2
19:44 76.8 °F /  24.9 °C 61.5 °F /  16.4 °C 30.14in /  1020.5hPa Calm     59.2% 0.00in /  0mm 0 W/m2
19:49 76.5 °F /  24.7 °C 61.7 °F /  16.5 °C 30.14in /  1020.5hPa Calm     60.4% 0.00in /  0mm 0 W/m2
19:54 76.1 °F /  24.5 °C 62 °F /  16.7 °C 30.14in /  1020.5hPa Calm     61.6% 0.00in /  0mm 0 W/m2
19:59 75.8 °F /  24.3 °C 62 °F /  16.7 °C 30.14in /  1020.5hPa Calm     62.3% 0.00in /  0mm 0 W/m2
20:00 75.7 °F /  24.3 °C 62.2 °F /  16.8 °C 30.14in /  1020.5hPa Calm     63% 0.00in /  0mm 0 W/m2
20:09 75.3 °F /  24.1 °C 62.3 °F /  16.8 °C 30.15in /  1020.9hPa Calm     64% 0.00in /  0mm 0 W/m2
20:14 75 °F /  23.9 °C 62.2 °F /  16.8 °C 30.15in /  1020.9hPa Calm     64.5% 0.00in /  0mm 0 W/m2
20:19 74.7 °F /  23.7 °C 62.2 °F /  16.8 °C 30.15in /  1020.9hPa Calm     65% 0.00in /  0mm 0 W/m2
20:24 74.4 °F /  23.6 °C 61.9 °F /  16.6 °C 30.15in /  1020.9hPa Calm     65.1% 0.00in /  0mm 0 W/m2
20:29 74.2 °F /  23.4 °C 62.1 °F /  16.7 °C 30.15in /  1020.9hPa Calm     66% 0.00in /  0mm 0 W/m2
20:34 73.9 °F /  23.3 °C 61.9 °F /  16.6 °C 30.15in /  1020.9hPa Calm     66.2% 0.00in /  0mm 0 W/m2
20:39 73.7 °F /  23.2 °C 62.1 °F /  16.7 °C 30.15in /  1020.9hPa Calm     67.1% 0.00in /  0mm 0 W/m2
20:44 73.5 °F /  23.1 °C 62.3 °F /  16.8 °C 30.15in /  1020.9hPa Calm     68% 0.00in /  0mm 0 W/m2
20:49 73.3 °F /  22.9 °C 62.1 °F /  16.7 °C 30.15in /  1020.9hPa Calm     68% 0.00in /  0mm 0 W/m2
20:54 73.1 °F /  22.8 °C 62.3 °F /  16.8 °C 30.15in /  1020.9hPa Calm     68.9% 0.00in /  0mm 0 W/m2
20:59 72.9 °F /  22.7 °C 62.1 °F /  16.7 °C 30.16in /  1021.2hPa Calm     69% 0.00in /  0mm 0 W/m2
21:04 72.7 °F /  22.6 °C 61.9 °F /  16.6 °C 30.16in /  1021.2hPa Calm     69% 0.00in /  0mm 0 W/m2
21:09 72.5 °F /  22.5 °C 61.8 °F /  16.6 °C 30.16in /  1021.2hPa Calm     69.2% 0.00in /  0mm 0 W/m2
21:14 72.3 °F /  22.4 °C 61.8 °F /  16.6 °C 30.16in /  1021.2hPa Calm     69.6% 0.00in /  0mm 0 W/m2
21:19 72.1 °F /  22.3 °C 61.9 °F /  16.6 °C 30.15in /  1020.9hPa Calm     70.1% 0.00in /  0mm 0 W/m2
21:24 72 °F /  22.2 °C 62.1 °F /  16.7 °C 30.15in /  1020.9hPa Calm     71% 0.00in /  0mm 0 W/m2
21:29 71.8 °F /  22.1 °C 62.2 °F /  16.8 °C 30.15in /  1020.9hPa Calm     71.7% 0.00in /  0mm 0 W/m2
21:34 71.6 °F /  22 °C 62.5 °F /  16.9 °C 30.15in /  1020.9hPa Calm     72.9% 0.00in /  0mm 0 W/m2
21:39 71.4 °F /  21.9 °C 62.3 °F /  16.8 °C 30.15in /  1020.9hPa Calm     73% 0.00in /  0mm 0 W/m2
21:44 71.2 °F /  21.8 °C 62.1 °F /  16.7 °C 30.15in /  1020.9hPa Calm     73% 0.00in /  0mm 0 W/m2
21:49 71.1 °F /  21.7 °C 62 °F /  16.7 °C 30.15in /  1020.9hPa Calm     73.1% 0.00in /  0mm 0 W/m2
21:54 70.9 °F /  21.6 °C 62.2 °F /  16.8 °C 30.15in /  1020.9hPa Calm     74% 0.00in /  0mm 0 W/m2
21:59 70.8 °F /  21.6 °C 62.1 °F /  16.7 °C 30.15in /  1020.9hPa Calm     74% 0.00in /  0mm 0 W/m2
22:04 70.6 °F /  21.4 °C 62 °F /  16.7 °C 30.15in /  1020.9hPa Calm     74% 0.00in /  0mm 0 W/m2
22:09 70.5 °F /  21.4 °C 61.8 °F /  16.6 °C 30.15in /  1020.9hPa Calm     74% 0.00in /  0mm 0 W/m2
22:14 70.3 °F /  21.3 °C 61.7 °F /  16.5 °C 30.15in /  1020.9hPa Calm     74% 0.00in /  0mm 0 W/m2
22:19 70.2 °F /  21.2 °C 61.7 °F /  16.5 °C 30.15in /  1020.9hPa Calm     74.5% 0.00in /  0mm 0 W/m2
22:24 70 °F /  21.1 °C 61.4 °F /  16.3 °C 30.15in /  1020.9hPa Calm     74% 0.00in /  0mm 0 W/m2
22:29 69.9 °F /  21.1 °C 61.3 °F /  16.3 °C 30.15in /  1020.9hPa Calm     74.1% 0.00in /  0mm 0 W/m2
22:34 69.8 °F /  21 °C 61.5 °F /  16.4 °C 30.15in /  1020.9hPa Calm     75% 0.00in /  0mm 0 W/m2
22:39 69.7 °F /  20.9 °C 61.4 °F /  16.3 °C 30.15in /  1020.9hPa Calm     75% 0.00in /  0mm 0 W/m2
22:44 69.5 °F /  20.8 °C 61.4 °F /  16.3 °C 30.15in /  1020.9hPa Calm     75.2% 0.00in /  0mm 0 W/m2
22:49 69.4 °F /  20.8 °C 61.2 °F /  16.2 °C 30.15in /  1020.9hPa Calm     75% 0.00in /  0mm 0 W/m2
22:54 69.3 °F /  20.7 °C 61.4 °F /  16.3 °C 30.15in /  1020.9hPa Calm     76% 0.00in /  0mm 0 W/m2
22:59 69.2 °F /  20.7 °C 61.3 °F /  16.3 °C 30.15in /  1020.9hPa Calm     76% 0.00in /  0mm 0 W/m2
23:04 69.1 °F /  20.6 °C 61.2 °F /  16.2 °C 30.15in /  1020.9hPa Calm     76% 0.00in /  0mm 0 W/m2
23:09 69 °F /  20.6 °C 61.1 °F /  16.2 °C 30.15in /  1020.9hPa Calm     76% 0.00in /  0mm 0 W/m2
23:14 68.9 °F /  20.5 °C 61 °F /  16.1 °C 30.15in /  1020.9hPa Calm     75.9% 0.00in /  0mm 0 W/m2
23:19 68.8 °F /  20.4 °C 60.6 °F /  15.9 °C 30.15in /  1020.9hPa Calm     75% 0.00in /  0mm 0 W/m2
23:24 68.8 °F /  20.4 °C 60.5 °F /  15.8 °C 30.15in /  1020.9hPa Calm     74.8% 0.00in /  0mm 0 W/m2
23:29 68.8 °F /  20.4 °C 60.2 °F /  15.7 °C 30.15in /  1020.9hPa Calm     74% 0.00in /  0mm 0 W/m2
23:34 69 °F /  20.6 °C 60 °F /  15.6 °C 30.15in /  1020.9hPa Calm     73.1% 0.00in /  0mm 0 W/m2
23:39 69.2 °F /  20.7 °C 60.1 °F /  15.6 °C 30.15in /  1020.9hPa Calm     72.9% 0.00in /  0mm 0 W/m2
23:44 69.3 °F /  20.7 °C 59.9 °F /  15.5 °C 30.15in /  1020.9hPa Calm     72% 0.00in /  0mm 0 W/m2
23:49 69.4 °F /  20.8 °C 59.9 °F /  15.5 °C 30.15in /  1020.9hPa Calm     71.8% 0.00in /  0mm 0 W/m2
23:54 69.4 °F /  20.8 °C 59.7 °F /  15.4 °C 30.16in /  1021.2hPa Calm     71.2% 0.00in /  0mm 0 W/m2
23:59 69.4 °F /  20.8 °C 59.6 °F /  15.3 °C 30.16in /  1021.2hPa Calm     71% 0.00in /  0mm 0 W/m2
Hartford County Weather
Compliments of Weather Underground - 2 mb